Time;durP1;ratioP1;P1;durP2;ratioP2;P2;SDS_P1;SDS_P2;PMS_P1;PMS_P2;Temp;Humidity;BMP_temperature;BMP_pressure;BME280_temperature;BME280_humidity;BME280_pressure;Samples;Min_cycle;Max_cycle;Signal;HPM_P1;HPM_P2
2022/07/05 00:01:40;;;;;;;9.93;5.40;;;;;;;18.18;82.85;98389.44;4126061;28;20645;-90
2022/07/05 00:03:43;;;;;;;7.47;5.47;;;;;;;18.18;83.14;98384.16;4129008;28;20638;-89
2022/07/05 00:05:46;;;;;;;5.50;4.90;;;;;;;18.19;82.86;98394.56;4126682;28;20662;-89
2022/07/05 00:07:49;;;;;;;6.20;4.60;;;;;;;18.17;83.48;98398.31;4127163;28;20652;-89
2022/07/05 00:09:54;;;;;;;5.70;5.20;;;;;;;18.14;82.83;98393.31;4126067;28;20658;-89
2022/07/05 00:11:58;;;;;;;6.10;5.30;;;;;;;18.11;82.78;98397.03;4142794;28;20632;-89
2022/07/05 00:14:01;;;;;;;5.10;4.60;;;;;;;18.08;83.39;98401.78;4136515;28;20647;-89
2022/07/05 00:16:05;;;;;;;5.90;5.30;;;;;;;18.08;83.49;98401.78;4137060;28;20649;-89
2022/07/05 00:18:08;;;;;;;7.33;5.27;;;;;;;18.05;83.01;98394.16;4126000;28;21037;-89
2022/07/05 00:20:12;;;;;;;5.30;4.53;;;;;;;18.03;82.86;98398.75;4125218;28;20642;-88
2022/07/05 00:22:15;;;;;;;5.80;4.67;;;;;;;18.01;83.70;98398.03;4130533;28;21288;-89
2022/07/05 00:24:18;;;;;;;5.43;4.63;;;;;;;18.00;83.64;98404.31;4129122;28;20641;-89
2022/07/05 00:26:21;;;;;;;5.33;4.83;;;;;;;17.93;82.42;98400.56;4119935;28;20638;-89
2022/07/05 00:28:26;;;;;;;6.10;4.87;;;;;;;17.85;82.61;98394.34;4143759;28;21052;-90
2022/07/05 00:30:29;;;;;;;6.40;5.47;;;;;;;17.75;83.41;98391.72;4133839;28;20672;-88
2022/07/05 00:32:32;;;;;;;6.10;4.60;;;;;;;17.72;82.48;98391.97;4127821;28;20630;-89
2022/07/05 00:34:36;;;;;;;5.60;5.10;;;;;;;17.68;83.09;98390.63;4129256;28;21030;-89
2022/07/05 00:36:39;;;;;;;5.53;4.80;;;;;;;17.58;83.40;98392.44;4144265;28;21540;-90
2022/07/05 00:38:42;;;;;;;8.13;5.00;;;;;;;17.49;83.28;98395.91;4130230;28;20646;-89
2022/07/05 00:40:45;;;;;;;7.00;4.60;;;;;;;17.44;84.24;98391.19;4129510;28;20629;-90
2022/07/05 00:42:49;;;;;;;5.17;4.67;;;;;;;17.39;85.09;98391.59;4128863;28;20789;-89
2022/07/05 00:44:53;;;;;;;6.13;5.27;;;;;;;17.36;84.53;98394.50;4127881;28;20642;-89
2022/07/05 00:46:56;;;;;;;6.23;4.80;;;;;;;17.35;83.56;98394.66;4126408;28;20661;-89
2022/07/05 00:49:01;;;;;;;6.50;4.90;;;;;;;17.36;84.20;98398.97;4129538;28;20656;-89
2022/07/05 00:51:04;;;;;;;5.80;5.20;;;;;;;17.34;83.74;98390.38;4128887;28;21240;-89
2022/07/05 00:53:07;;;;;;;5.73;4.90;;;;;;;17.32;84.99;98398.41;4131435;28;20644;-90
2022/07/05 00:55:11;;;;;;;5.70;5.10;;;;;;;17.29;84.48;98397.84;4127421;28;20682;-89
2022/07/05 00:57:14;;;;;;;5.93;5.43;;;;;;;17.28;84.66;98401.47;4144544;28;20700;-90
2022/07/05 00:59:17;;;;;;;5.23;4.43;;;;;;;17.28;85.33;98407.56;4143865;28;20667;-89
2022/07/05 01:01:22;;;;;;;4.83;4.43;;;;;;;17.28;85.58;98404.94;4135177;28;20619;-90
2022/07/05 01:03:27;;;;;;;5.50;5.00;;;;;;;17.25;85.23;98404.38;4137336;28;20754;-89
2022/07/05 01:05:31;;;;;;;5.43;4.93;;;;;;;17.20;85.75;98402.16;4141978;28;20674;-88
2022/07/05 01:07:35;;;;;;;5.20;4.57;;;;;;;17.16;84.10;98413.91;4125979;28;20658;-89
2022/07/05 01:09:39;;;;;;;5.97;4.97;;;;;;;17.14;84.08;98409.75;4128201;28;20706;-89
2022/07/05 01:11:42;;;;;;;5.27;4.77;;;;;;;17.12;85.34;98411.69;4127678;28;21367;-89
2022/07/05 01:13:45;;;;;;;5.33;4.80;;;;;;;17.11;85.63;98410.84;4145351;28;20627;-89
2022/07/05 01:15:49;;;;;;;5.10;4.53;;;;;;;17.14;84.20;98412.41;4129927;28;20655;-89
2022/07/05 01:17:54;;;;;;;5.20;4.77;;;;;;;17.12;85.92;98414.31;4127489;28;20649;-89
2022/07/05 01:19:57;;;;;;;6.07;4.70;;;;;;;17.13;86.38;98418.63;4127231;28;21289;-90
2022/07/05 01:22:03;;;;;;;5.57;4.70;;;;;;;17.11;84.89;98417.94;4127027;28;20648;-89
2022/07/05 01:24:08;;;;;;;5.17;4.67;;;;;;;17.08;84.64;98418.22;4125895;28;20676;-89
2022/07/05 01:26:11;;;;;;;5.07;4.60;;;;;;;17.06;84.88;98417.50;4128665;28;20632;-90
2022/07/05 01:28:15;;;;;;;5.50;5.00;;;;;;;17.06;86.43;98420.13;4142928;28;21253;-89
2022/07/05 01:30:18;;;;;;;5.60;5.00;;;;;;;17.03;85.82;98417.75;4129439;28;20643;-89
2022/07/05 01:32:21;;;;;;;5.00;4.43;;;;;;;17.02;86.91;98419.59;4128192;28;20627;-88
2022/07/05 01:34:24;;;;;;;5.10;4.60;;;;;;;17.00;85.84;98418.91;4141539;28;20645;-90
2022/07/05 01:36:27;;;;;;;5.63;5.10;;;;;;;17.00;86.82;98420.66;4128504;28;20635;-88
2022/07/05 01:38:31;;;;;;;5.60;5.00;;;;;;;16.94;84.90;98413.31;4128740;28;20627;-89
2022/07/05 01:40:35;;;;;;;6.40;5.60;;;;;;;16.92;85.26;98414.44;4143024;28;20698;-90
2022/07/05 01:42:38;;;;;;;6.07;5.47;;;;;;;16.87;85.15;98414.84;4152797;28;20665;-89
2022/07/05 01:44:42;;;;;;;5.80;5.20;;;;;;;16.85;85.28;98414.13;4130209;28;20659;-87
2022/07/05 01:46:45;;;;;;;5.57;5.07;;;;;;;16.83;86.27;98416.06;4126235;28;20738;-88
2022/07/05 01:48:50;;;;;;;5.83;5.23;;;;;;;16.82;87.49;98419.66;4127685;28;20655;-89
2022/07/05 01:50:57;;;;;;;5.87;5.27;;;;;;;16.80;86.24;98416.34;4143022;28;20689;-89
2022/07/05 01:53:02;;;;;;;9.83;5.07;;;;;;;16.80;87.63;98415.50;4141939;28;20658;-89
2022/07/05 01:55:06;;;;;;;5.60;5.00;;;;;;;16.76;86.88;98416.75;4129392;28;20647;-89
2022/07/05 01:57:11;;;;;;;6.30;5.47;;;;;;;16.74;85.76;98421.31;4140522;28;20693;-89
2022/07/05 01:59:14;;;;;;;5.90;4.90;;;;;;;16.70;86.18;98414.63;4129157;28;20648;-89
2022/07/05 02:01:33;;;;;;;9.07;5.53;;;;;;;16.67;86.16;98409.63;4146039;28;21173;-89
2022/07/05 02:03:37;;;;;;;5.53;4.97;;;;;;;16.63;86.55;98411.72;4126780;28;21198;-89
2022/07/05 02:06:01;;;;;;;5.47;4.97;;;;;;;16.63;87.17;98414.34;4138338;28;20682;-89
2022/07/05 02:08:05;;;;;;;6.67;4.90;;;;;;;16.61;87.25;98408.41;4136197;28;20636;-88
2022/07/05 02:10:09;;;;;;;7.57;5.00;;;;;;;16.62;86.23;98419.75;4152052;28;20646;-89
2022/07/05 02:12:13;;;;;;;7.13;4.80;;;;;;;16.60;87.33;98414.63;4144312;28;20652;-88
2022/07/05 02:14:17;;;;;;;5.33;4.83;;;;;;;16.57;87.52;98414.88;4129897;28;21093;-88
2022/07/05 02:16:24;;;;;;;8.53;4.93;;;;;;;16.54;86.37;98409.88;4143271;28;20645;-89
2022/07/05 02:18:27;;;;;;;5.77;4.73;;;;;;;16.54;87.44;98409.88;4125625;28;21351;-89
2022/07/05 02:20:32;;;;;;;4.80;4.40;;;;;;;16.51;88.22;98404.88;4128500;28;20629;-89
2022/07/05 02:22:36;;;;;;;6.27;4.97;;;;;;;16.50;88.26;98401.56;4128141;28;21226;-87
2022/07/05 02:24:39;;;;;;;5.80;4.63;;;;;;;16.48;87.22;98403.47;4142940;28;20635;-87
2022/07/05 02:26:53;;;;;;;7.60;5.17;;;;;;;16.45;86.51;98401.97;4123957;28;20659;-88
2022/07/05 02:28:58;;;;;;;6.10;5.50;;;;;;;16.45;88.21;98399.31;4128872;28;20642;-89
2022/07/05 02:31:01;;;;;;;5.77;5.27;;;;;;;16.45;87.21;98403.75;4137380;28;20635;-90
2022/07/05 02:33:05;;;;;;;5.77;5.07;;;;;;;16.40;87.39;98396.22;4128400;28;20639;-89
2022/07/05 02:35:09;;;;;;;7.37;5.33;;;;;;;16.32;85.28;98397.88;4144162;28;20627;-88
2022/07/05 02:37:12;;;;;;;5.53;5.03;;;;;;;16.24;87.04;98395.91;4122886;28;20651;-88
2022/07/05 02:39:16;;;;;;;6.23;5.13;;;;;;;16.16;85.56;98394.84;4131210;28;21222;-88
2022/07/05 02:41:20;;;;;;;7.03;5.30;;;;;;;16.10;88.35;98393.59;4127755;28;20640;-88
2022/07/05 02:43:26;;;;;;;5.80;5.30;;;;;;;16.08;86.38;98405.22;4127533;28;20671;-88
2022/07/05 02:45:31;;;;;;;6.40;5.57;;;;;;;16.08;88.31;98405.22;4128047;28;20731;-89
2022/07/05 02:47:35;;;;;;;7.57;5.00;;;;;;;16.10;87.90;98403.28;4139830;28;21071;-88
2022/07/05 02:49:38;;;;;;;7.40;5.10;;;;;;;16.11;88.24;98403.16;4127780;28;20766;-88
2022/07/05 02:51:43;;;;;;;5.80;5.20;;;;;;;16.12;88.74;98406.63;4150112;28;20632;-89
2022/07/05 02:53:48;;;;;;;6.40;5.33;;;;;;;16.13;87.60;98413.53;4126323;28;20738;-89
2022/07/05 02:55:53;;;;;;;6.13;5.10;;;;;;;16.13;86.81;98414.41;4128827;28;20638;-89
2022/07/05 02:57:57;;;;;;;6.80;5.50;;;;;;;16.13;87.56;98413.53;4125611;28;20667;-86
2022/07/05 03:00:05;;;;;;;6.23;4.80;;;;;;;16.11;87.97;98418.09;4127354;28;21241;-89
2022/07/05 03:02:22;;;;;;;6.87;5.10;;;;;;;16.07;86.76;98420.19;4142944;28;21231;-88
2022/07/05 03:04:26;;;;;;;7.03;5.30;;;;;;;16.05;87.05;98414.19;4125031;28;21013;-88
2022/07/05 03:06:32;;;;;;;5.53;5.00;;;;;;;16.02;87.75;98424.97;4142403;28;20660;-89
2022/07/05 03:08:35;;;;;;;6.87;5.27;;;;;;;15.99;87.89;98419.16;4126540;28;21022;-88
2022/07/05 03:10:39;;;;;;;5.43;4.93;;;;;;;15.94;87.42;98418.72;4121616;28;20689;-90
2022/07/05 03:12:43;;;;;;;7.47;5.40;;;;;;;15.91;88.38;98424.22;4125257;28;20635;-89
2022/07/05 03:14:48;;;;;;;5.60;4.70;;;;;;;15.87;87.59;98420.19;4125182;28;20654;-89
2022/07/05 03:16:53;;;;;;;5.60;5.00;;;;;;;15.84;87.02;98420.44;4126938;28;20739;-89
2022/07/05 03:18:59;;;;;;;6.00;5.30;;;;;;;15.82;86.71;98417.13;4124725;28;20627;-88
2022/07/05 03:21:02;;;;;;;5.23;4.70;;;;;;;15.82;87.36;98413.66;4126556;28;20737;-88
2022/07/05 03:23:08;;;;;;;5.37;4.63;;;;;;;15.82;87.74;98411.84;4124635;28;20637;-89
2022/07/05 03:25:24;;;;;;;7.40;4.90;;;;;;;15.79;86.45;98422.63;4126638;28;20635;-88
2022/07/05 03:27:28;;;;;;;5.50;4.90;;;;;;;15.76;86.68;98429.94;4121743;28;21271;-89
2022/07/05 03:29:31;;;;;;;5.63;5.10;;;;;;;15.71;86.89;98429.47;4142050;28;20667;-88
2022/07/05 03:31:35;;;;;;;5.60;5.10;;;;;;;15.67;86.89;98421.03;4142670;28;20657;-89
2022/07/05 03:33:40;;;;;;;6.70;5.23;;;;;;;15.65;87.36;98430.84;4125067;28;20642;-89
2022/07/05 03:35:47;;;;;;;5.87;5.00;;;;;;;15.62;87.29;98428.47;4135558;28;20638;-89
2022/07/05 03:37:53;;;;;;;5.07;4.67;;;;;;;15.58;87.29;98432.31;4125352;28;20681;-89
2022/07/05 03:39:58;;;;;;;7.13;5.20;;;;;;;15.55;88.36;98431.72;4127144;28;20797;-87
2022/07/05 03:42:01;;;;;;;8.47;5.20;;;;;;;15.54;87.61;98434.47;4138246;28;21100;-88
2022/07/05 03:44:06;;;;;;;5.83;4.67;;;;;;;15.50;86.83;98433.91;4124386;28;21002;-88
2022/07/05 03:46:10;;;;;;;5.43;4.90;;;;;;;15.50;88.19;98443.56;4143249;28;20649;-89
2022/07/05 03:48:16;;;;;;;5.80;5.20;;;;;;;15.50;87.88;98440.94;4125028;28;20663;-88
2022/07/05 03:50:39;;;;;;;6.10;4.93;;;;;;;15.54;88.42;98439.75;4141531;28;20665;-89
2022/07/05 03:52:43;;;;;;;5.93;4.83;;;;;;;15.57;87.98;98446.44;4129621;28;21100;-89
2022/07/05 03:54:47;;;;;;;5.57;5.00;;;;;;;15.57;89.08;98450.84;4128505;28;20635;-89
2022/07/05 03:56:50;;;;;;;5.83;5.13;;;;;;;15.55;87.63;98453.59;4142030;28;20716;-89
2022/07/05 03:58:53;;;;;;;6.87;5.30;;;;;;;15.58;87.71;98453.34;4126951;28;20693;-89
2022/07/05 04:00:57;;;;;;;5.40;4.87;;;;;;;15.64;87.29;98460.72;4125965;28;20646;-88
2022/07/05 04:03:02;;;;;;;7.30;5.20;;;;;;;15.67;87.94;98465.72;4140302;28;20645;-89
2022/07/05 04:05:06;;;;;;;7.70;5.00;;;;;;;15.71;87.67;98468.94;4119292;28;20715;-88
2022/07/05 04:07:11;;;;;;;10.13;5.30;;;;;;;15.69;86.87;98465.59;4122031;28;21021;-89
2022/07/05 04:09:16;;;;;;;6.57;5.00;;;;;;;15.67;87.20;98462.28;4129085;28;20638;-89
2022/07/05 04:11:20;;;;;;;7.00;5.50;;;;;;;15.67;87.63;98464.91;4120721;28;20677;-89
2022/07/05 04:13:27;;;;;;;8.77;5.90;;;;;;;15.67;88.63;98470.16;4126235;28;20808;-89
2022/07/05 04:15:32;;;;;;;6.57;5.13;;;;;;;15.65;88.34;98469.44;4130079;28;20647;-87
2022/07/05 04:17:47;;;;;;;6.20;5.40;;;;;;;15.64;88.52;98468.63;4140444;28;21256;-87
2022/07/05 04:19:50;;;;;;;6.10;5.10;;;;;;;15.69;88.33;98479.56;4125320;28;20634;-87
2022/07/05 04:21:54;;;;;;;7.10;5.17;;;;;;;15.74;87.36;98474.78;4126170;28;20690;-89
2022/07/05 04:23:57;;;;;;;6.83;5.63;;;;;;;15.80;88.97;98481.31;4121369;28;20701;-89
2022/07/05 04:26:03;;;;;;;8.33;5.53;;;;;;;15.89;87.95;98486.69;4126300;28;20628;-89
2022/07/05 04:28:13;;;;;;;5.83;5.23;;;;;;;15.94;87.76;98484.50;4135019;28;21083;-88
2022/07/05 04:30:18;;;;;;;5.77;5.17;;;;;;;15.99;87.77;98492.81;4125930;28;20663;-88
2022/07/05 04:32:22;;;;;;;6.60;5.00;;;;;;;16.01;87.07;98488.25;4140633;28;20639;-89
2022/07/05 04:34:25;;;;;;;5.90;4.80;;;;;;;16.05;88.17;98492.31;4126361;28;20667;-89
2022/07/05 04:36:28;;;;;;;5.40;4.90;;;;;;;16.07;88.91;98490.38;4138873;28;21284;-88
2022/07/05 04:38:33;;;;;;;9.67;5.17;;;;;;;16.11;87.35;98499.69;4140130;28;21226;-88
2022/07/05 04:40:40;;;;;;;8.97;5.30;;;;;;;16.14;87.67;98497.63;4134773;28;21270;-89
2022/07/05 04:42:45;;;;;;;6.70;5.07;;;;;;;16.21;88.72;98497.97;4127180;28;20999;-89
2022/07/05 04:44:50;;;;;;;8.23;4.37;;;;;;;16.25;86.61;98494.13;4136326;28;20649;-87
2022/07/05 04:46:54;;;;;;;5.87;5.00;;;;;;;16.32;88.36;98497.94;4121988;28;21234;-90
2022/07/05 04:48:57;;;;;;;7.07;4.90;;;;;;;16.38;88.44;98508.75;4141529;28;20639;-88
2022/07/05 04:51:01;;;;;;;8.07;4.97;;;;;;;16.42;87.88;98509.31;4141860;28;20651;-88
2022/07/05 04:53:07;;;;;;;5.93;5.10;;;;;;;16.48;88.13;98508.81;4120097;28;21203;-89
2022/07/05 04:55:10;;;;;;;6.60;5.23;;;;;;;16.52;87.58;98506.63;4120496;28;20645;-89
2022/07/05 04:57:13;;;;;;;7.57;5.67;;;;;;;16.56;86.89;98508.03;4126459;28;21055;-88
2022/07/05 04:59:18;;;;;;;6.27;5.67;;;;;;;16.63;88.28;98511.00;4124149;28;20631;-88
2022/07/05 05:01:28;;;;;;;8.13;5.30;;;;;;;16.64;86.40;98505.59;4139399;28;20658;-87
2022/07/05 05:03:31;;;;;;;6.00;5.27;;;;;;;16.70;88.17;98512.13;4134289;28;20695;-89
2022/07/05 05:05:34;;;;;;;7.53;5.50;;;;;;;16.74;87.67;98510.88;4137519;28;21125;-90
2022/07/05 05:07:39;;;;;;;5.67;5.07;;;;;;;16.81;85.80;98509.38;4140711;28;20674;-88
2022/07/05 05:09:42;;;;;;;6.00;5.03;;;;;;;16.87;86.70;98512.34;4139161;28;21272;-90
2022/07/05 05:11:46;;;;;;;6.90;4.83;;;;;;;16.94;87.75;98510.00;4139444;28;21029;-90
2022/07/05 05:13:49;;;;;;;5.40;4.90;;;;;;;16.99;87.05;98516.53;4128943;28;21193;-91
2022/07/05 05:15:53;;;;;;;5.53;5.03;;;;;;;17.06;86.68;98521.16;4119355;28;20632;-90
2022/07/05 05:17:59;;;;;;;5.97;5.00;;;;;;;17.12;85.04;98517.97;4140721;28;20706;-89
2022/07/05 05:20:03;;;;;;;6.53;4.80;;;;;;;17.16;86.22;98518.53;4144113;28;20663;-91
2022/07/05 05:22:06;;;;;;;6.50;4.67;;;;;;;17.22;84.42;98518.03;4126003;28;21058;-90
2022/07/05 05:24:09;;;;;;;6.67;4.90;;;;;;;17.29;84.85;98521.78;4144596;28;20632;-91
2022/07/05 05:26:12;;;;;;;5.40;4.70;;;;;;;17.39;84.95;98525.28;4130531;28;21277;-90
2022/07/05 05:28:16;;;;;;;5.53;4.67;;;;;;;17.46;85.04;98523.78;4145889;28;20684;-90
2022/07/05 05:30:20;;;;;;;5.80;5.27;;;;;;;17.54;83.76;98515.00;4122639;28;21896;-90
2022/07/05 05:32:24;;;;;;;6.10;5.50;;;;;;;17.66;84.33;98523.66;4129381;28;20656;-89
2022/07/05 05:34:27;;;;;;;5.87;5.37;;;;;;;17.78;84.73;98514.63;4139628;28;20641;-91
2022/07/05 05:36:30;;;;;;;7.23;6.50;;;;;;;17.92;84.95;98512.44;4142049;28;20642;-90
2022/07/05 05:38:33;;;;;;;6.97;5.63;;;;;;;18.09;84.67;98519.63;4148265;28;20648;-90
2022/07/05 05:40:38;;;;;;;7.23;5.57;;;;;;;18.27;84.53;98521.44;4128734;28;20634;-89
2022/07/05 05:42:41;;;;;;;5.83;5.23;;;;;;;18.48;84.72;98520.28;4146665;28;20634;-88
2022/07/05 05:44:44;;;;;;;5.90;5.40;;;;;;;18.80;84.33;98533.94;4129470;28;20629;-90
2022/07/05 05:46:47;;;;;;;4.90;4.50;;;;;;;19.10;83.19;98537.19;4128474;28;20652;-90
2022/07/05 05:48:52;;;;;;;5.07;4.67;;;;;;;19.45;81.65;98534.63;4128668;28;20645;-90
2022/07/05 05:50:55;;;;;;;6.43;5.50;;;;;;;19.80;81.66;98532.88;4128137;28;21179;-90
2022/07/05 05:52:58;;;;;;;5.20;4.70;;;;;;;20.13;80.23;98537.50;4147611;28;21214;-90
2022/07/05 05:55:01;;;;;;;5.23;4.40;;;;;;;20.44;78.65;98535.13;4145930;28;20661;-92
2022/07/05 05:57:05;;;;;;;5.20;4.70;;;;;;;20.81;79.07;98541.03;4128863;28;20626;-91
2022/07/05 05:59:08;;;;;;;5.90;4.80;;;;;;;21.12;75.98;98547.50;4144292;28;21022;-91
2022/07/05 06:01:11;;;;;;;4.80;4.40;;;;;;;21.42;76.24;98553.97;4126859;28;20987;-91
2022/07/05 06:03:14;;;;;;;6.77;4.90;;;;;;;21.67;75.13;98550.41;4139645;28;21054;-91
2022/07/05 06:05:19;;;;;;;5.30;4.80;;;;;;;21.95;73.46;98552.63;4129384;28;20623;-91
2022/07/05 06:07:22;;;;;;;5.77;5.10;;;;;;;22.22;73.98;98551.50;4147059;28;20630;-92
2022/07/05 06:09:25;;;;;;;4.90;4.50;;;;;;;22.49;73.05;98558.19;4142029;28;20631;-90
2022/07/05 06:11:28;;;;;;;5.27;4.77;;;;;;;22.78;72.45;98566.47;4135901;28;20642;-90
2022/07/05 06:13:32;;;;;;;5.57;4.90;;;;;;;22.93;71.53;98562.97;4129397;28;21078;-90
2022/07/05 06:15:35;;;;;;;6.23;5.27;;;;;;;23.20;72.31;98567.91;4142705;28;20627;-89
2022/07/05 06:17:38;;;;;;;4.70;4.30;;;;;;;23.48;70.37;98575.25;4145838;28;20733;-90
2022/07/05 06:19:41;;;;;;;5.80;4.53;;;;;;;23.74;70.02;98574.00;4130496;28;20634;-90
2022/07/05 06:21:46;;;;;;;5.53;5.03;;;;;;;23.95;69.92;98576.91;4144316;28;20636;-91
2022/07/05 06:23:49;;;;;;;5.97;4.70;;;;;;;24.09;68.63;98576.13;4149205;28;20694;-91
2022/07/05 06:25:53;;;;;;;5.30;4.80;;;;;;;24.22;68.02;98577.22;4131526;28;20719;-91
2022/07/05 06:27:57;;;;;;;8.10;4.90;;;;;;;24.39;68.01;98568.13;4129106;28;21252;-91
2022/07/05 06:30:00;;;;;;;5.00;4.57;;;;;;;24.60;67.19;98572.75;4126521;28;21208;-91
2022/07/05 06:32:04;;;;;;;5.40;4.90;;;;;;;24.80;65.94;98577.44;4127342;28;20674;-91
2022/07/05 06:34:07;;;;;;;5.13;4.63;;;;;;;24.96;65.51;98583.44;4126546;28;20642;-91
2022/07/05 06:36:10;;;;;;;7.13;5.80;;;;;;;25.12;65.72;98582.47;4148041;28;21226;-91
2022/07/05 06:38:14;;;;;;;7.60;4.80;;;;;;;25.27;65.43;98584.13;4127031;28;20680;-91
2022/07/05 06:40:19;;;;;;;5.27;4.80;;;;;;;25.40;66.24;98582.47;4126565;28;21191;-91
2022/07/05 06:42:22;;;;;;;4.77;4.27;;;;;;;25.54;66.67;98589.66;4132772;28;20653;-91
2022/07/05 06:44:25;;;;;;;4.93;4.43;;;;;;;25.67;63.80;98593.38;4133566;28;21243;-91
2022/07/05 06:46:38;;;;;;;9.13;4.70;;;;;;;25.87;64.88;98588.25;4148948;28;20632;-91
2022/07/05 06:48:41;;;;;;;6.13;4.27;;;;;;;26.00;63.14;98589.25;4129051;28;20654;-91
2022/07/05 06:50:45;;;;;;;6.40;4.00;;;;;;;26.18;61.30;98601.19;4137260;28;21193;-91
2022/07/05 06:52:48;;;;;;;4.60;4.20;;;;;;;26.35;63.72;98588.44;4130723;28;20666;-91
2022/07/05 06:54:52;;;;;;;7.97;4.23;;;;;;;26.45;62.11;98588.94;4129542;28;20638;-91
2022/07/05 06:56:56;;;;;;;4.27;3.50;;;;;;;26.54;62.48;98587.78;4132782;28;20742;-91
2022/07/05 06:59:19;;;;;;;4.10;3.70;;;;;;;26.69;62.32;98590.19;4140300;28;20677;-91
2022/07/05 07:01:42;;;;;;;4.43;4.03;;;;;;;26.86;61.18;98588.88;4132423;28;20991;-91
2022/07/05 07:03:46;;;;;;;4.83;3.70;;;;;;;26.94;60.19;98593.31;4121507;28;20758;-91
2022/07/05 07:06:09;;;;;;;4.00;3.57;;;;;;;26.99;59.26;98585.50;4140644;28;20693;-92
2022/07/05 07:10:35;;;;;;;6.30;3.50;;;;;;;27.26;58.91;98594.38;4131527;28;21210;-92
2022/07/05 07:12:38;;;;;;;4.93;3.80;;;;;;;27.40;60.72;98596.13;4147797;28;20663;-92
2022/07/05 07:14:41;;;;;;;3.60;3.10;;;;;;;27.53;59.68;98596.25;4129968;28;20631;-91
2022/07/05 07:16:45;;;;;;;3.87;3.47;;;;;;;27.60;60.07;98592.56;4126246;28;20657;-94
2022/07/05 07:18:48;;;;;;;4.13;3.47;;;;;;;27.74;59.35;98599.66;4121787;28;20816;-92
2022/07/05 07:21:11;;;;;;;7.67;4.03;;;;;;;27.82;58.62;98601.31;4143010;28;20634;-92
2022/07/05 07:23:16;;;;;;;4.77;3.90;;;;;;;27.95;58.26;98596.00;4138447;28;20650;-92
2022/07/05 07:25:20;;;;;;;4.80;4.00;;;;;;;28.15;58.78;98593.22;4131861;28;20649;-92
2022/07/05 07:27:25;;;;;;;4.97;4.00;;;;;;;28.29;60.60;98594.09;4144673;28;20684;-92
2022/07/05 07:29:28;;;;;;;8.40;3.60;;;;;;;28.44;60.62;98598.25;4142139;28;20659;-92
2022/07/05 07:31:31;;;;;;;7.97;3.37;;;;;;;28.56;59.27;98602.81;4134290;28;20746;-90
2022/07/05 07:33:34;;;;;;;4.10;3.70;;;;;;;28.62;57.53;98601.16;4138006;28;20666;-90
2022/07/05 07:35:47;;;;;;;5.20;3.43;;;;;;;28.57;56.46;98604.47;4142212;28;20666;-90
2022/07/05 07:37:50;;;;;;;4.10;3.30;;;;;;;28.54;56.88;98596.81;4130876;28;20651;-90
2022/07/05 07:39:53;;;;;;;4.33;3.53;;;;;;;28.55;56.78;98594.94;4126822;28;20692;-90
2022/07/05 07:41:56;;;;;;;4.60;3.90;;;;;;;28.59;57.03;98601.56;4130659;28;20731;-90
2022/07/05 07:44:01;;;;;;;4.07;3.63;;;;;;;28.53;56.00;98602.38;4140056;28;20670;-90
2022/07/05 07:46:04;;;;;;;7.40;4.13;;;;;;;28.51;57.80;98593.72;4138230;28;20687;-90
2022/07/05 07:48:28;;;;;;;4.13;3.40;;;;;;;28.53;57.89;98594.34;4138699;28;20662;-90
2022/07/05 07:50:31;;;;;;;4.30;3.40;;;;;;;28.60;56.06;98605.94;4128683;28;21190;-90
2022/07/05 07:52:36;;;;;;;6.67;3.20;;;;;;;28.71;58.17;98600.78;4130417;28;20683;-90
2022/07/05 07:54:39;;;;;;;6.07;3.80;;;;;;;28.86;55.84;98604.09;4140103;28;20679;-90
2022/07/05 07:56:42;;;;;;;4.77;3.60;;;;;;;28.89;57.75;98603.69;4130443;28;20634;-90
2022/07/05 07:58:58;;;;;;;4.10;3.20;;;;;;;28.93;57.07;98604.09;4116415;28;20711;-90
2022/07/05 08:01:02;;;;;;;3.77;2.90;;;;;;;29.00;57.67;98609.28;4129376;28;20735;-90
2022/07/05 08:03:05;;;;;;;5.40;3.10;;;;;;;29.08;56.12;98610.94;4124945;28;21108;-90
2022/07/05 08:05:10;;;;;;;2.83;2.60;;;;;;;29.14;54.78;98612.81;4141714;28;20689;-90
2022/07/05 08:07:13;;;;;;;4.57;3.10;;;;;;;29.09;54.45;98609.88;4131706;28;20671;-90
2022/07/05 08:09:16;;;;;;;3.83;3.30;;;;;;;29.21;57.07;98611.75;4143415;28;20630;-90
2022/07/05 08:11:20;;;;;;;3.60;2.73;;;;;;;29.32;56.28;98616.53;4147231;28;20611;-90
2022/07/05 08:13:23;;;;;;;4.10;2.83;;;;;;;29.34;54.86;98611.75;4142117;28;20658;-90
2022/07/05 08:15:26;;;;;;;3.30;2.93;;;;;;;29.36;54.80;98606.97;4124930;28;20643;-90
2022/07/05 08:17:31;;;;;;;6.27;3.10;;;;;;;29.37;56.18;98605.97;4122585;28;20731;-90
2022/07/05 08:21:53;;;;;;;4.20;3.37;;;;;;;29.51;56.06;98610.28;4142378;28;20985;-90
2022/07/05 08:23:57;;;;;;;4.90;3.00;;;;;;;29.61;56.63;98610.66;4128399;28;20820;-90
2022/07/05 08:26:00;;;;;;;5.50;2.70;;;;;;;29.67;53.84;98612.53;4141233;28;20636;-90
2022/07/05 08:28:03;;;;;;;3.30;2.43;;;;;;;29.71;56.99;98606.50;4145551;28;20646;-90
2022/07/05 08:30:08;;;;;;;5.47;3.13;;;;;;;29.67;55.05;98604.44;4142761;28;20634;-90
2022/07/05 08:32:11;;;;;;;7.07;3.10;;;;;;;29.67;55.81;98607.13;4144287;28;20633;-90
2022/07/05 08:34:17;;;;;;;4.60;3.03;;;;;;;29.72;57.74;98607.31;4123953;28;20717;-89
2022/07/05 08:36:20;;;;;;;4.60;3.20;;;;;;;29.78;55.32;98606.47;4127420;28;20638;-90
2022/07/05 08:38:24;;;;;;;5.00;3.07;;;;;;;29.68;55.04;98612.31;4144044;28;20646;-90
2022/07/05 08:40:30;;;;;;;4.93;3.20;;;;;;;29.66;54.99;98610.84;4151240;28;20630;-90
2022/07/05 08:42:33;;;;;;;6.03;3.10;;;;;;;29.58;54.65;98601.16;4140507;28;20627;-90
2022/07/05 08:44:40;;;;;;;3.90;3.17;;;;;;;29.50;53.58;98596.00;4132399;28;21113;-89
2022/07/05 08:46:44;;;;;;;4.97;3.20;;;;;;;29.60;56.60;98598.25;4140407;28;20666;-89
2022/07/05 08:48:49;;;;;;;5.90;4.37;;;;;;;29.66;56.45;98598.22;4146952;28;20669;-89
2022/07/05 08:50:55;;;;;;;5.60;3.20;;;;;;;29.65;57.80;98598.44;4142467;28;20690;-89
2022/07/05 08:53:00;;;;;;;4.27;3.27;;;;;;;29.57;57.58;98595.97;4144604;28;21306;-89
2022/07/05 08:55:04;;;;;;;4.13;2.87;;;;;;;29.58;55.08;98595.75;4138669;28;20640;-89
2022/07/05 08:57:08;;;;;;;4.00;2.90;;;;;;;29.67;57.64;98599.88;4142341;28;20696;-88
2022/07/05 08:59:16;;;;;;;3.90;2.63;;;;;;;29.74;55.54;98594.47;4147236;28;21056;-89
2022/07/05 09:01:19;;;;;;;7.73;2.70;;;;;;;29.80;56.52;98593.66;4123552;28;21027;-89
2022/07/05 09:03:25;;;;;;;13.77;3.27;;;;;;;29.66;53.40;98586.63;4139811;28;20720;-89
2022/07/05 09:05:29;;;;;;;4.37;2.93;;;;;;;29.62;57.62;98586.25;4139606;28;20723;-90
2022/07/05 09:07:38;;;;;;;3.70;2.50;;;;;;;29.73;53.30;98595.53;4128731;28;20695;-89
2022/07/05 09:09:43;;;;;;;4.57;2.37;;;;;;;29.79;55.03;98592.84;4129463;28;21277;-89
2022/07/05 09:12:25;;;;;;;5.00;2.43;;;;;;;29.72;54.36;98592.00;4131522;28;21253;-89
2022/07/05 09:14:29;;;;;;;4.43;2.27;;;;;;;29.78;54.98;98593.00;4126504;28;20651;-88
2022/07/05 09:16:33;;;;;;;2.33;2.00;;;;;;;29.86;53.74;98593.66;4127765;28;20634;-89
2022/07/05 09:18:46;;;;;;;4.23;2.23;;;;;;;29.93;51.99;98589.03;4109762;28;20652;-89
2022/07/05 09:20:49;;;;;;;3.07;2.00;;;;;;;29.95;52.17;98587.81;4126858;28;20648;-90
2022/07/05 09:22:57;;;;;;;3.58;2.13;;;;;;;29.96;53.22;98589.47;4108671;28;20761;-90
2022/07/05 09:25:14;;;;;;;3.50;2.30;;;;;;;29.88;53.95;98586.19;4121291;28;20207;-89
2022/07/05 09:27:17;;;;;;;3.33;2.30;;;;;;;29.87;51.89;98599.84;4102389;28;20643;-88
2022/07/05 09:29:21;;;;;;;2.97;2.53;;;;;;;29.86;53.46;98603.56;4139642;28;20640;-87
2022/07/05 09:31:46;;;;;;;3.70;2.30;;;;;;;29.88;51.89;98590.75;4138239;28;20640;-88
2022/07/05 09:33:50;;;;;;;2.00;1.67;;;;;;;29.94;51.47;98604.97;4142573;28;20707;-88
2022/07/05 09:35:57;;;;;;;4.20;2.00;;;;;;;29.84;50.24;98597.59;4128180;28;20628;-88
2022/07/05 09:38:04;;;;;;;3.80;2.23;;;;;;;29.81;52.69;98585.38;4141692;28;20695;-87
2022/07/05 09:40:09;;;;;;;3.77;2.23;;;;;;;29.79;50.76;98590.16;4110397;28;20677;-88
2022/07/05 09:42:23;;;;;;;3.13;2.23;;;;;;;29.70;52.09;98585.19;4113006;28;20643;-88
2022/07/05 09:44:26;;;;;;;4.97;2.20;;;;;;;29.79;55.61;98597.38;4132707;28;20630;-88
2022/07/05 09:46:31;;;;;;;3.67;2.00;;;;;;;29.89;53.80;98592.38;4130004;28;20626;-88
2022/07/05 09:48:35;;;;;;;3.57;2.27;;;;;;;29.96;53.16;98599.38;4117724;28;20637;-88
2022/07/05 09:50:45;;;;;;;3.10;1.83;;;;;;;30.05;50.95;98590.03;4130773;28;20652;-89
2022/07/05 09:53:06;;;;;;;3.10;1.83;;;;;;;29.99;52.79;98593.56;4156029;28;20637;-89
2022/07/05 09:55:10;;;;;;;5.00;1.87;;;;;;;29.99;49.49;98596.28;4143487;28;20656;-88